createdAt,value
2023-01-30T00:01:00.569Z,96745.56
2023-01-30T00:03:27.511Z,96713.66
2023-01-30T00:05:53.871Z,96690.31
2023-01-30T00:08:20.272Z,96695.38
2023-01-30T00:10:47.221Z,96661.69
2023-01-30T00:13:14.512Z,96629.88
2023-01-30T00:15:41.312Z,96610.88
2023-01-30T00:18:07.974Z,96603.03
2023-01-30T00:20:34.389Z,96583.00
2023-01-30T00:23:01.357Z,96569.13
2023-01-30T00:25:28.468Z,96567.31
2023-01-30T00:27:55.058Z,96541.25
2023-01-30T00:30:21.445Z,96539.44
2023-01-30T00:32:48.013Z,96536.84
2023-01-30T00:35:14.465Z,96541.88
2023-01-30T00:37:40.814Z,96522.06
2023-01-30T00:40:07.689Z,96530.75
2023-01-30T00:42:52.435Z,96534.06
2023-01-30T00:45:37.429Z,96524.47
2023-01-30T00:48:04.047Z,96508.03
2023-01-30T00:50:42.651Z,96509.50
2023-01-30T00:53:12.751Z,96523.91
2023-01-30T00:55:39.168Z,96484.72
2023-01-30T00:58:05.564Z,96487.22
2023-01-30T01:00:32.523Z,96484.31
2023-01-30T01:02:58.959Z,96484.31
2023-01-30T01:05:25.645Z,96460.03
2023-01-30T01:07:51.995Z,96443.72
2023-01-30T01:10:18.516Z,96435.72
2023-01-30T01:12:45.923Z,96390.88
2023-01-30T01:15:12.709Z,96336.66
2023-01-30T01:17:39.796Z,96307.28
2023-01-30T01:20:07.305Z,96259.00
2023-01-30T01:22:33.665Z,96221.94
2023-01-30T01:24:59.988Z,96199.72
2023-01-30T01:27:26.570Z,96174.78
2023-01-30T01:29:52.918Z,96163.50
2023-01-30T01:32:20.690Z,96132.38
2023-01-30T01:34:47.415Z,96104.75
2023-01-30T01:37:13.777Z,96064.31
2023-01-30T01:39:58.989Z,96020.59
2023-01-30T01:42:26.403Z,95967.66
2023-01-30T01:45:16.545Z,95937.31
2023-01-30T01:47:46.243Z,95904.25
2023-01-30T01:50:14.924Z,95834.09
2023-01-30T01:52:41.485Z,95745.09
2023-01-30T01:55:07.917Z,95663.34
2023-01-30T01:57:37.855Z,95583.94
2023-01-30T02:00:16.220Z,95478.31
2023-01-30T02:02:54.645Z,95394.78
2023-01-30T02:05:21.124Z,95328.44
2023-01-30T02:07:52.593Z,95232.16
2023-01-30T02:10:27.688Z,95173.00
2023-01-30T02:12:54.049Z,95168.00
2023-01-30T02:15:20.518Z,95174.56
2023-01-30T02:17:47.095Z,95157.81
2023-01-30T02:20:23.186Z,95156.88
2023-01-30T02:23:04.784Z,95142.03
2023-01-30T02:25:44.634Z,95122.69
2023-01-30T02:28:32.516Z,95121.75
2023-01-30T02:31:05.045Z,95076.69
2023-01-30T02:33:39.966Z,95050.28
2023-01-30T02:36:43.390Z,95010.53
2023-01-30T02:39:40.211Z,94988.75
2023-01-30T02:42:18.792Z,94998.03
2023-01-30T02:44:47.185Z,95020.22
2023-01-30T02:47:23.082Z,95004.53
2023-01-30T02:49:52.812Z,95009.44
2023-01-30T02:52:19.200Z,95003.72
2023-01-30T02:54:45.556Z,95011.34
2023-01-30T02:57:22.776Z,95013.13
2023-01-30T02:59:54.405Z,95012.97
2023-01-30T03:02:27.383Z,94999.91
2023-01-30T03:05:04.790Z,94983.59
2023-01-30T03:07:46.022Z,94980.56
2023-01-30T03:10:12.355Z,94973.63
2023-01-30T03:12:41.563Z,94951.31
2023-01-30T03:15:12.487Z,94944.06
2023-01-30T03:17:40.098Z,94926.34
2023-01-30T03:20:07.113Z,94909.72
2023-01-30T03:22:33.726Z,94899.63
2023-01-30T03:25:00.332Z,94894.97
2023-01-30T03:27:26.689Z,94875.03
2023-01-30T03:29:53.070Z,94888.41
2023-01-30T03:32:19.424Z,94892.47
2023-01-30T03:34:45.809Z,94877.88
2023-01-30T03:37:15.375Z,94875.66
2023-01-30T03:39:41.775Z,94875.41
2023-01-30T03:42:08.322Z,94893.25
2023-01-30T03:44:34.910Z,94891.31
2023-01-30T03:47:01.632Z,94897.00
2023-01-30T03:49:28.090Z,94911.47
2023-01-30T03:51:54.814Z,94895.94
2023-01-30T03:54:21.165Z,94835.69
2023-01-30T03:56:51.744Z,94763.44
2023-01-30T03:59:18.111Z,94674.09
2023-01-30T04:01:44.516Z,94570.00
2023-01-30T04:04:10.846Z,94453.63
2023-01-30T04:06:37.444Z,94309.31
2023-01-30T04:09:03.845Z,94199.28
2023-01-30T04:11:30.192Z,94071.44
2023-01-30T04:13:56.611Z,93973.06
2023-01-30T04:16:25.365Z,93893.78
2023-01-30T04:18:51.881Z,93804.59
2023-01-30T04:21:18.491Z,93738.09
2023-01-30T04:23:44.895Z,93646.84
2023-01-30T04:26:11.426Z,93581.50
2023-01-30T04:28:38.013Z,93513.56
2023-01-30T04:31:04.683Z,93454.03
2023-01-30T04:33:31.080Z,93428.16
2023-01-30T04:35:58.691Z,93409.66
2023-01-30T04:38:25.879Z,93360.50
2023-01-30T04:40:53.091Z,93341.38
2023-01-30T04:43:19.995Z,93273.47
2023-01-30T04:45:46.551Z,93203.59
2023-01-30T04:48:13.238Z,93079.34
2023-01-30T04:50:40.608Z,92987.75
2023-01-30T04:53:07.023Z,92849.56
2023-01-30T04:55:33.716Z,92699.44
2023-01-30T04:58:00.372Z,92504.31
2023-01-30T05:00:27.089Z,92440.63
2023-01-30T05:02:53.533Z,92396.44
2023-01-30T05:05:20.132Z,92326.75
2023-01-30T05:07:46.647Z,92242.72
2023-01-30T05:10:12.980Z,92188.16
2023-01-30T05:12:39.548Z,92126.06
2023-01-30T05:15:06.801Z,92080.25
2023-01-30T05:17:33.980Z,92009.19
2023-01-30T05:20:00.600Z,91982.06
2023-01-30T05:22:27.010Z,91916.56
2023-01-30T05:24:53.368Z,91873.13
2023-01-30T05:27:19.904Z,91831.72
2023-01-30T05:29:46.304Z,91750.50
2023-01-30T05:32:13.894Z,91708.06
2023-01-30T05:34:40.321Z,91636.94
2023-01-30T05:37:06.678Z,91578.22
2023-01-30T05:39:33.316Z,91534.53
2023-01-30T05:41:59.723Z,91515.94
2023-01-30T05:44:26.076Z,91491.97
2023-01-30T05:46:52.474Z,91470.56
2023-01-30T05:49:18.910Z,91451.19
2023-01-30T05:51:45.260Z,91451.78
2023-01-30T05:54:11.688Z,91444.53
2023-01-30T05:56:38.239Z,91449.72
2023-01-30T05:59:04.925Z,91448.03
2023-01-30T06:01:31.310Z,91448.81
2023-01-30T06:03:58.266Z,91429.66
2023-01-30T06:06:24.780Z,91425.59
2023-01-30T06:08:57.076Z,91403.94
2023-01-30T06:11:23.847Z,91400.34
2023-01-30T06:13:50.270Z,91411.19
2023-01-30T06:16:17.452Z,91395.16
2023-01-30T06:18:44.191Z,91393.13
2023-01-30T06:21:10.531Z,91418.53
2023-01-30T06:23:36.926Z,91400.97
2023-01-30T06:26:05.879Z,91382.94
2023-01-30T06:28:34.420Z,91391.50
2023-01-30T06:31:00.980Z,91402.41
2023-01-30T06:33:27.638Z,91425.72
2023-01-30T06:35:54.325Z,91451.38
2023-01-30T06:38:24.332Z,91477.75
2023-01-30T06:40:51.963Z,91503.19
2023-01-30T06:43:18.623Z,91539.56
2023-01-30T06:45:44.995Z,91585.75
2023-01-30T06:48:11.593Z,91648.25
2023-01-30T06:50:38.037Z,91747.53
2023-01-30T06:53:06.005Z,91833.59
2023-01-30T06:55:34.499Z,91944.00
2023-01-30T06:58:11.247Z,92055.00
2023-01-30T07:00:40.161Z,92177.38
2023-01-30T07:03:12.625Z,92340.09
2023-01-30T07:05:39.886Z,92459.28
2023-01-30T07:08:06.381Z,92598.47
2023-01-30T07:10:32.832Z,92709.34
2023-01-30T07:12:59.608Z,92820.41
2023-01-30T07:15:26.423Z,92981.56
2023-01-30T07:17:52.768Z,93078.69
2023-01-30T07:20:19.167Z,93197.31
2023-01-30T07:22:52.387Z,93336.72
2023-01-30T07:25:19.837Z,93474.31
2023-01-30T07:27:53.028Z,93601.56
2023-01-30T07:30:19.574Z,93720.81
2023-01-30T07:32:52.743Z,93831.31
2023-01-30T07:35:19.467Z,93949.31
2023-01-30T07:37:49.099Z,94047.78
2023-01-30T07:40:15.863Z,94215.91
2023-01-30T07:42:42.584Z,94299.06
2023-01-30T07:45:09.358Z,94348.81
2023-01-30T07:47:35.831Z,94410.75
2023-01-30T07:50:02.408Z,94505.25
2023-01-30T07:52:28.989Z,94642.78
2023-01-30T07:54:55.347Z,94799.00
2023-01-30T07:57:21.710Z,94912.34
2023-01-30T07:59:48.067Z,95001.97
2023-01-30T08:02:14.454Z,95052.38
2023-01-30T08:04:40.902Z,95117.25
2023-01-30T08:07:07.293Z,95172.97
2023-01-30T08:09:33.763Z,95250.66
2023-01-30T08:12:00.359Z,95360.88
2023-01-30T08:14:28.678Z,95499.91
2023-01-30T08:16:56.758Z,95621.78
2023-01-30T08:19:23.146Z,95656.19
2023-01-30T08:21:49.491Z,95684.59
2023-01-30T08:24:16.023Z,95701.69
2023-01-30T08:26:42.398Z,95694.88
2023-01-30T08:29:08.762Z,95651.41
2023-01-30T08:31:35.177Z,95603.72
2023-01-30T08:34:01.530Z,95557.59
2023-01-30T08:36:28.134Z,95555.78
2023-01-30T08:38:54.578Z,95587.66
2023-01-30T08:41:20.978Z,95602.94
2023-01-30T08:43:47.566Z,95671.38
2023-01-30T08:46:14.010Z,95820.25
2023-01-30T08:48:49.453Z,95944.88
2023-01-30T08:51:16.687Z,95989.16
2023-01-30T08:53:43.045Z,96069.28
2023-01-30T08:56:09.540Z,96128.31
2023-01-30T08:58:35.902Z,96238.66
2023-01-30T09:01:06.802Z,96320.00
2023-01-30T09:03:33.193Z,96392.50
2023-01-30T09:05:59.548Z,96457.44
2023-01-30T09:08:26.137Z,96486.22
2023-01-30T09:10:52.480Z,96509.38
2023-01-30T09:13:18.994Z,96541.47
2023-01-30T09:15:45.752Z,96547.63
2023-01-30T09:18:12.235Z,96537.22
2023-01-30T09:20:39.016Z,96546.47
2023-01-30T09:23:05.449Z,96544.34
2023-01-30T09:25:31.796Z,96571.13
2023-01-30T09:27:58.210Z,96620.53
2023-01-30T09:30:24.613Z,96630.94
2023-01-30T09:32:51.075Z,96648.31
2023-01-30T09:35:17.545Z,96656.31
2023-01-30T09:37:48.305Z,96666.13
2023-01-30T09:40:18.991Z,96645.53
2023-01-30T09:42:57.718Z,96598.75
2023-01-30T09:45:30.898Z,96531.31
2023-01-30T09:48:09.721Z,96524.16
2023-01-30T09:51:00.418Z,96553.22
2023-01-30T09:53:36.238Z,96629.28
2023-01-30T09:56:02.817Z,96702.56
2023-01-30T09:58:52.200Z,96689.78
2023-01-30T10:01:24.091Z,96697.25
2023-01-30T10:04:15.384Z,96682.50
2023-01-30T10:06:55.316Z,96682.03
2023-01-30T10:09:53.025Z,96714.88
2023-01-30T10:12:34.660Z,96775.41
2023-01-30T10:15:25.891Z,96789.34
2023-01-30T10:17:52.244Z,96823.66
2023-01-30T10:20:35.782Z,96852.75
2023-01-30T10:23:22.802Z,96799.72
2023-01-30T10:25:57.181Z,96823.22
2023-01-30T10:28:31.888Z,96876.88
2023-01-30T10:31:13.719Z,96861.06
2023-01-30T10:33:46.656Z,96887.78
2023-01-30T10:36:16.493Z,96940.53
2023-01-30T10:38:50.720Z,97006.06
2023-01-30T10:41:37.804Z,97037.28
2023-01-30T10:44:06.071Z,97006.25
2023-01-30T10:46:57.337Z,97015.63
2023-01-30T10:49:36.814Z,97028.34
2023-01-30T10:52:24.197Z,97044.13
2023-01-30T10:55:12.570Z,97070.75
2023-01-30T10:57:48.250Z,97122.41
2023-01-30T11:00:21.926Z,97109.81
2023-01-30T11:02:54.311Z,97097.84
2023-01-30T11:05:48.369Z,97062.56
2023-01-30T11:08:25.819Z,97040.50
2023-01-30T11:10:52.954Z,97053.28
2023-01-30T11:13:26.516Z,97119.91
2023-01-30T11:15:54.403Z,97157.59
2023-01-30T11:19:16.653Z,97244.06
2023-01-30T11:21:14.406Z,97273.00
2023-01-30T11:23:42.115Z,97346.34
2023-01-30T11:26:21.755Z,97341.00
2023-01-30T11:28:49.069Z,97320.03
2023-01-30T11:31:40.353Z,97368.50
2023-01-30T11:34:18.422Z,97337.00
2023-01-30T11:36:47.297Z,97377.19
2023-01-30T11:39:14.042Z,97308.59
2023-01-30T11:41:57.320Z,97254.78
2023-01-30T11:44:33.218Z,97203.75
2023-01-30T11:47:07.137Z,96946.56
2023-01-30T11:50:30.752Z,96739.44
2023-01-30T11:52:36.813Z,96618.00
2023-01-30T11:55:08.515Z,96568.16
2023-01-30T11:57:54.431Z,96678.84
2023-01-30T12:00:23.804Z,96748.09
2023-01-30T12:02:51.077Z,96806.25
2023-01-30T12:05:55.287Z,96812.09
2023-01-30T12:08:31.162Z,96820.31
2023-01-30T12:11:02.453Z,96783.00
2023-01-30T12:13:34.578Z,96705.38
2023-01-30T12:16:17.777Z,96603.75
2023-01-30T12:18:59.411Z,96555.09
2023-01-30T12:21:55.099Z,96560.53
2023-01-30T12:24:49.052Z,96539.94
2023-01-30T12:27:29.994Z,96486.34
2023-01-30T12:30:02.381Z,96447.38
2023-01-30T12:32:31.156Z,96385.22
2023-01-30T12:34:57.652Z,96313.44
2023-01-30T12:37:27.159Z,96209.97
2023-01-30T12:40:16.072Z,96065.25
2023-01-30T12:43:10.939Z,95967.31
2023-01-30T12:45:44.413Z,95856.66
2023-01-30T12:48:22.935Z,95770.94
2023-01-30T12:51:13.040Z,95847.00
2023-01-30T12:54:02.483Z,96043.16
2023-01-30T12:56:42.834Z,96219.13
2023-01-30T12:59:20.622Z,96311.06
2023-01-30T13:01:59.243Z,96428.00
2023-01-30T13:05:13.924Z,96421.63
2023-01-30T13:07:51.283Z,96495.56
2023-01-30T13:10:39.223Z,96493.44
2023-01-30T13:13:14.373Z,96447.06
2023-01-30T13:15:56.807Z,96408.88
2023-01-30T13:18:40.644Z,96324.28
2023-01-30T13:21:30.242Z,96335.38
2023-01-30T13:24:15.266Z,96309.31
2023-01-30T13:26:42.223Z,96351.69
2023-01-30T13:29:20.939Z,96368.25
2023-01-30T13:31:54.989Z,96406.50
2023-01-30T13:34:33.753Z,96453.78
2023-01-30T13:37:19.437Z,96483.78
2023-01-30T13:39:59.824Z,96456.47
2023-01-30T13:42:26.218Z,96351.09
2023-01-30T13:44:52.991Z,96281.06
2023-01-30T13:47:32.260Z,96293.34
2023-01-30T13:50:40.872Z,96306.81
2023-01-30T13:53:28.032Z,96433.56
2023-01-30T13:55:57.455Z,96485.22
2023-01-30T13:58:44.237Z,96581.16
2023-01-30T14:01:14.288Z,96631.75
2023-01-30T14:03:41.825Z,96667.44
2023-01-30T14:06:31.566Z,96685.88
2023-01-30T14:09:00.632Z,96718.72
2023-01-30T14:11:31.913Z,96752.66
2023-01-30T14:14:23.839Z,96828.72
2023-01-30T14:16:55.132Z,96839.03
2023-01-30T14:19:27.502Z,96873.97
2023-01-30T14:21:55.895Z,96724.28
2023-01-30T14:24:24.941Z,96511.44
2023-01-30T14:26:51.340Z,96299.94
2023-01-30T14:29:42.710Z,96014.00
2023-01-30T14:32:13.015Z,95786.72
2023-01-30T14:35:01.137Z,95519.81
2023-01-30T14:37:45.013Z,95298.09
2023-01-30T14:40:31.629Z,95037.91
2023-01-30T14:43:14.720Z,94900.28
2023-01-30T14:45:48.932Z,94760.44
2023-01-30T14:48:29.044Z,94688.94
2023-01-30T14:51:22.448Z,94660.91
2023-01-30T14:54:03.011Z,94746.56
2023-01-30T14:57:00.605Z,94827.34
2023-01-30T14:59:38.282Z,94906.53
2023-01-30T15:02:14.008Z,95050.34
2023-01-30T15:04:42.263Z,95147.16
2023-01-30T15:07:25.052Z,95233.25
2023-01-30T15:09:56.993Z,95350.06
2023-01-30T15:12:42.239Z,95425.59
2023-01-30T15:15:26.776Z,95527.53
2023-01-30T15:18:08.334Z,95658.25
2023-01-30T15:21:00.249Z,95684.47
2023-01-30T15:24:03.632Z,95728.31
2023-01-30T15:26:49.012Z,95776.44
2023-01-30T15:29:40.509Z,95807.09
2023-01-30T15:32:20.404Z,95893.22
2023-01-30T15:34:49.903Z,96006.97
2023-01-30T15:37:29.894Z,96104.00
2023-01-30T15:40:14.569Z,96138.69
2023-01-30T15:42:51.025Z,96205.97
2023-01-30T15:45:17.437Z,96292.13
2023-01-30T15:48:22.551Z,96360.41
2023-01-30T15:50:53.830Z,96406.19
2023-01-30T15:53:25.792Z,96415.03
2023-01-30T15:55:52.162Z,96361.78
2023-01-30T15:58:19.208Z,96272.31
2023-01-30T16:00:53.541Z,96179.28
2023-01-30T16:03:28.643Z,96122.44
2023-01-30T16:05:55.963Z,96070.75
2023-01-30T16:08:33.177Z,96041.50
2023-01-30T16:11:00.687Z,96010.59
2023-01-30T16:13:27.950Z,96009.41
2023-01-30T16:15:55.632Z,95988.06
2023-01-30T16:18:37.917Z,95972.16
2023-01-30T16:21:05.368Z,95953.56
2023-01-30T16:23:34.629Z,95946.97
2023-01-30T16:26:01.102Z,95936.00
2023-01-30T16:28:28.238Z,95939.44
2023-01-30T16:31:12.627Z,95935.44
2023-01-30T16:33:39.352Z,95939.22
2023-01-30T16:36:07.416Z,95928.84
2023-01-30T16:38:38.380Z,95923.53
2023-01-30T16:41:05.047Z,95936.00
2023-01-30T16:43:32.300Z,95932.09
2023-01-30T16:46:42.988Z,95960.16
2023-01-30T16:49:21.550Z,96028.81
2023-01-30T16:51:48.187Z,96146.25
2023-01-30T16:54:23.823Z,96370.53
2023-01-30T16:56:52.042Z,96500.38
2023-01-30T16:59:20.441Z,96588.69
2023-01-30T17:01:46.949Z,96651.97
2023-01-30T17:04:20.542Z,96648.91
2023-01-30T17:07:05.240Z,96644.16
2023-01-30T17:09:42.968Z,96624.53
2023-01-30T17:12:28.152Z,96607.22
2023-01-30T17:15:09.967Z,96560.78
2023-01-30T17:17:36.393Z,96542.81
2023-01-30T17:20:02.975Z,96526.03
2023-01-30T17:22:29.376Z,96512.75
2023-01-30T17:24:58.487Z,96500.13
2023-01-30T17:27:26.006Z,96516.50
2023-01-30T17:29:52.393Z,96541.44
2023-01-30T17:32:18.958Z,96594.88
2023-01-30T17:34:45.346Z,96633.84
2023-01-30T17:37:22.987Z,96616.72
2023-01-30T17:39:49.386Z,96644.22
2023-01-30T17:42:17.891Z,96644.44
2023-01-30T17:44:44.329Z,96666.03
2023-01-30T17:47:11.304Z,96680.78
2023-01-30T17:49:37.691Z,96698.22
2023-01-30T17:52:04.422Z,96781.63
2023-01-30T17:54:30.854Z,96836.84
2023-01-30T17:57:01.663Z,96855.44
2023-01-30T17:59:28.316Z,96833.97
2023-01-30T18:01:54.685Z,96819.72
2023-01-30T18:04:21.116Z,96785.25
2023-01-30T18:06:49.234Z,96750.16
2023-01-30T18:09:19.601Z,96721.94
2023-01-30T18:11:46.550Z,96661.94
2023-01-30T18:14:13.144Z,96613.97
2023-01-30T18:16:39.550Z,96561.56
2023-01-30T18:19:08.543Z,96563.66
2023-01-30T18:21:36.586Z,96565.22
2023-01-30T18:24:03.194Z,96591.75
2023-01-30T18:26:30.041Z,96586.69
2023-01-30T18:28:56.846Z,96590.09
2023-01-30T18:31:25.117Z,96609.81
2023-01-30T18:33:52.360Z,96634.00
2023-01-30T18:36:19.428Z,96644.28
2023-01-30T18:38:46.249Z,96688.28
2023-01-30T18:41:17.651Z,96711.31
2023-01-30T18:43:44.269Z,96784.59
2023-01-30T18:46:15.340Z,96815.03
2023-01-30T18:48:41.887Z,96812.44
2023-01-30T18:51:15.389Z,96855.59
2023-01-30T18:53:42.687Z,96852.81
2023-01-30T18:56:13.251Z,96828.44
2023-01-30T18:58:39.765Z,96760.31
2023-01-30T19:01:14.281Z,96649.66
2023-01-30T19:03:41.032Z,96563.53
2023-01-30T19:06:10.078Z,96484.25
2023-01-30T19:08:37.244Z,96434.00
2023-01-30T19:11:33.285Z,96379.53
2023-01-30T19:14:00.009Z,96340.59
2023-01-30T19:16:27.887Z,96283.53
2023-01-30T19:18:54.447Z,96242.03
2023-01-30T19:21:20.904Z,96228.94
2023-01-30T19:23:47.294Z,96241.81
2023-01-30T19:26:13.707Z,96258.44
2023-01-30T19:28:41.857Z,96312.81
2023-01-30T19:31:09.080Z,96386.16
2023-01-30T19:33:35.958Z,96451.03
2023-01-30T19:36:17.829Z,96511.44
2023-01-30T19:38:44.830Z,96532.41
2023-01-30T19:41:12.225Z,96541.13
2023-01-30T19:43:38.820Z,96545.06
2023-01-30T19:46:05.902Z,96568.22
2023-01-30T19:48:32.512Z,96583.88
2023-01-30T19:51:05.489Z,96633.06
2023-01-30T19:53:33.365Z,96670.00
2023-01-30T19:55:59.710Z,96623.53
2023-01-30T19:58:26.151Z,96605.88
2023-01-30T20:00:52.603Z,96629.22
2023-01-30T20:03:19.036Z,96689.84
2023-01-30T20:05:45.713Z,96730.63
2023-01-30T20:08:25.611Z,96793.69
2023-01-30T20:11:08.260Z,96833.34
2023-01-30T20:13:35.525Z,96876.72
2023-01-30T20:16:06.597Z,96906.28
2023-01-30T20:18:34.401Z,96928.91
2023-01-30T20:21:21.535Z,96938.72
2023-01-30T20:23:48.523Z,96978.56
2023-01-30T20:26:20.402Z,96969.09
2023-01-30T20:28:47.236Z,97012.84
2023-01-30T20:31:15.849Z,97070.56
2023-01-30T20:33:42.480Z,97112.69
2023-01-30T20:36:10.586Z,97133.28
2023-01-30T20:38:38.208Z,97142.72
2023-01-30T20:41:09.633Z,97151.16
2023-01-30T20:43:37.284Z,97129.38
2023-01-30T20:46:04.804Z,97179.25
2023-01-30T20:48:31.222Z,97216.25
2023-01-30T20:51:02.029Z,97221.59
2023-01-30T20:53:28.634Z,97208.72
2023-01-30T20:55:58.989Z,97200.19
2023-01-30T20:58:26.144Z,97214.91
2023-01-30T21:00:52.575Z,97205.38
2023-01-30T21:03:18.951Z,97210.94
2023-01-30T21:05:45.355Z,97195.56
2023-01-30T21:08:12.011Z,97187.94
2023-01-30T21:10:39.721Z,97221.66
2023-01-30T21:13:06.819Z,97205.94
2023-01-30T21:15:33.399Z,97224.81
2023-01-30T21:18:00.354Z,97244.69
2023-01-30T21:20:26.780Z,97192.31
2023-01-30T21:22:53.215Z,97160.16
2023-01-30T21:25:19.965Z,97113.47
2023-01-30T21:27:46.589Z,97100.56
2023-01-30T21:30:13.882Z,97087.06
2023-01-30T21:32:40.495Z,97053.59
2023-01-30T21:35:07.273Z,97019.34
2023-01-30T21:37:52.423Z,96984.91
2023-01-30T21:40:37.899Z,96916.63
2023-01-30T21:43:16.418Z,96904.78
2023-01-30T21:45:42.833Z,96940.25
2023-01-30T21:48:09.260Z,96987.13
2023-01-30T21:50:35.608Z,96982.13
2023-01-30T21:53:01.962Z,96955.38
2023-01-30T21:55:28.358Z,96946.00
2023-01-30T21:57:54.731Z,96921.94
2023-01-30T22:00:21.094Z,96901.91
2023-01-30T22:02:49.595Z,96968.22
2023-01-30T22:05:15.975Z,96975.09
2023-01-30T22:07:42.610Z,97003.03
2023-01-30T22:10:09.556Z,97020.44
2023-01-30T22:12:36.445Z,97027.50
2023-01-30T22:15:02.937Z,97060.25
2023-01-30T22:17:29.366Z,97073.94
2023-01-30T22:19:55.758Z,97067.28
2023-01-30T22:22:24.074Z,97091.53
2023-01-30T22:24:50.592Z,97070.81
2023-01-30T22:27:17.050Z,97081.94
2023-01-30T22:29:43.631Z,97091.47
2023-01-30T22:32:10.215Z,97110.63
2023-01-30T22:34:36.902Z,97089.03
2023-01-30T22:37:03.316Z,97087.47
2023-01-30T22:39:29.658Z,97083.03
2023-01-30T22:41:56.041Z,97117.47
2023-01-30T22:44:22.465Z,97176.16
2023-01-30T22:46:50.057Z,97114.69
2023-01-30T22:49:16.430Z,97035.13
2023-01-30T22:51:43.615Z,96929.66
2023-01-30T22:54:16.675Z,96810.94
2023-01-30T22:56:48.801Z,96709.59
2023-01-30T22:59:15.572Z,96614.06
2023-01-30T23:01:43.293Z,96566.22
2023-01-30T23:04:14.521Z,96543.44
2023-01-30T23:06:40.950Z,96578.38
2023-01-30T23:09:08.313Z,96623.84
2023-01-30T23:11:42.762Z,96625.53
2023-01-30T23:14:16.489Z,96631.63
2023-01-30T23:16:44.111Z,96637.72
2023-01-30T23:19:11.528Z,96608.72
2023-01-30T23:21:42.711Z,96614.84
2023-01-30T23:24:16.982Z,96638.56
2023-01-30T23:26:45.113Z,96680.56
2023-01-30T23:29:17.187Z,96722.28
2023-01-30T23:31:44.323Z,96759.31
2023-01-30T23:34:16.164Z,96817.22
2023-01-30T23:36:42.804Z,96850.16
2023-01-30T23:39:10.094Z,96890.97
2023-01-30T23:41:36.698Z,96928.44
2023-01-30T23:44:03.289Z,96965.63
2023-01-30T23:46:34.415Z,97006.50
2023-01-30T23:49:05.654Z,97051.47
2023-01-30T23:51:33.116Z,97097.50
2023-01-30T23:53:59.569Z,97122.63
2023-01-30T23:56:26.906Z,97153.88
2023-01-30T23:58:53.370Z,97194.41
